sensor_id;sensor_type;location;lat;lon;timestamp;P1;durP1;ratioP1;P2;durP2;ratioP2
19733;SDS011;10018;51.230;7.860;2023-03-01T00:01:23;25.47;;;14.40;;
19733;SDS011;10018;51.230;7.860;2023-03-01T00:03:52;26.97;;;14.23;;
19733;SDS011;10018;51.230;7.860;2023-03-01T00:06:19;30.60;;;13.83;;
19733;SDS011;10018;51.230;7.860;2023-03-01T00:08:46;22.40;;;12.23;;
19733;SDS011;10018;51.230;7.860;2023-03-01T00:11:22;23.83;;;11.83;;
19733;SDS011;10018;51.230;7.860;2023-03-01T00:13:53;24.10;;;12.10;;
19733;SDS011;10018;51.230;7.860;2023-03-01T00:16:25;28.27;;;16.00;;
19733;SDS011;10018;51.230;7.860;2023-03-01T00:18:56;36.63;;;19.57;;
19733;SDS011;10018;51.230;7.860;2023-03-01T00:21:22;25.00;;;13.37;;
19733;SDS011;10018;51.230;7.860;2023-03-01T00:23:48;23.83;;;12.40;;
19733;SDS011;10018;51.230;7.860;2023-03-01T00:26:14;28.67;;;14.60;;
19733;SDS011;10018;51.230;7.860;2023-03-01T00:28:41;24.70;;;12.83;;
19733;SDS011;10018;51.230;7.860;2023-03-01T00:31:08;27.80;;;12.87;;
19733;SDS011;10018;51.230;7.860;2023-03-01T00:33:36;36.50;;;19.67;;
19733;SDS011;10018;51.230;7.860;2023-03-01T00:36:03;29.97;;;16.90;;
19733;SDS011;10018;51.230;7.860;2023-03-01T00:38:29;24.83;;;13.77;;
19733;SDS011;10018;51.230;7.860;2023-03-01T00:40:54;30.20;;;15.07;;
19733;SDS011;10018;51.230;7.860;2023-03-01T00:43:20;28.90;;;14.17;;
19733;SDS011;10018;51.230;7.860;2023-03-01T00:45:46;29.83;;;13.40;;
19733;SDS011;10018;51.230;7.860;2023-03-01T00:48:11;27.77;;;14.37;;
19733;SDS011;10018;51.230;7.860;2023-03-01T00:50:37;27.63;;;14.83;;
19733;SDS011;10018;51.230;7.860;2023-03-01T00:53:02;24.40;;;12.80;;
19733;SDS011;10018;51.230;7.860;2023-03-01T00:55:29;25.60;;;13.43;;
19733;SDS011;10018;51.230;7.860;2023-03-01T00:57:55;27.60;;;13.10;;
19733;SDS011;10018;51.230;7.860;2023-03-01T01:00:21;32.50;;;15.50;;
19733;SDS011;10018;51.230;7.860;2023-03-01T01:02:46;31.83;;;13.33;;
19733;SDS011;10018;51.230;7.860;2023-03-01T01:05:12;25.20;;;13.00;;
19733;SDS011;10018;51.230;7.860;2023-03-01T01:07:38;25.40;;;13.17;;
19733;SDS011;10018;51.230;7.860;2023-03-01T01:10:04;25.57;;;12.87;;
19733;SDS011;10018;51.230;7.860;2023-03-01T01:12:30;39.13;;;18.50;;
19733;SDS011;10018;51.230;7.860;2023-03-01T01:14:57;38.70;;;18.80;;
19733;SDS011;10018;51.230;7.860;2023-03-01T01:17:23;44.67;;;19.27;;
19733;SDS011;10018;51.230;7.860;2023-03-01T01:19:48;45.60;;;19.57;;
19733;SDS011;10018;51.230;7.860;2023-03-01T01:22:14;39.27;;;16.73;;
19733;SDS011;10018;51.230;7.860;2023-03-01T01:24:39;37.40;;;16.60;;
19733;SDS011;10018;51.230;7.860;2023-03-01T01:27:07;35.10;;;15.00;;
19733;SDS011;10018;51.230;7.860;2023-03-01T01:29:33;29.03;;;13.97;;
19733;SDS011;10018;51.230;7.860;2023-03-01T01:31:58;38.27;;;17.20;;
19733;SDS011;10018;51.230;7.860;2023-03-01T01:34:24;46.27;;;18.57;;
19733;SDS011;10018;51.230;7.860;2023-03-01T01:36:50;39.37;;;16.83;;
19733;SDS011;10018;51.230;7.860;2023-03-01T01:39:18;32.47;;;15.17;;
19733;SDS011;10018;51.230;7.860;2023-03-01T01:41:45;29.77;;;13.90;;
19733;SDS011;10018;51.230;7.860;2023-03-01T01:49:41;29.33;;;14.43;;
19733;SDS011;10018;51.230;7.860;2023-03-01T01:52:16;29.63;;;15.60;;
19733;SDS011;10018;51.230;7.860;2023-03-01T01:55:04;26.00;;;13.20;;
19733;SDS011;10018;51.230;7.860;2023-03-01T01:57:43;23.97;;;12.87;;
19733;SDS011;10018;51.230;7.860;2023-03-01T02:00:13;26.03;;;12.90;;
19733;SDS011;10018;51.230;7.860;2023-03-01T02:02:44;24.30;;;12.53;;
19733;SDS011;10018;51.230;7.860;2023-03-01T02:05:15;26.37;;;12.97;;
19733;SDS011;10018;51.230;7.860;2023-03-01T02:07:59;23.13;;;11.93;;
19733;SDS011;10018;51.230;7.860;2023-03-01T02:10:26;26.33;;;11.97;;
19733;SDS011;10018;51.230;7.860;2023-03-01T02:12:53;26.87;;;12.97;;
19733;SDS011;10018;51.230;7.860;2023-03-01T02:15:21;26.03;;;13.47;;
19733;SDS011;10018;51.230;7.860;2023-03-01T02:17:49;26.67;;;12.20;;
19733;SDS011;10018;51.230;7.860;2023-03-01T02:22:47;36.60;;;15.97;;
19733;SDS011;10018;51.230;7.860;2023-03-01T02:30:38;22.53;;;12.00;;
19733;SDS011;10018;51.230;7.860;2023-03-01T02:33:24;22.90;;;12.27;;
19733;SDS011;10018;51.230;7.860;2023-03-01T02:35:57;22.47;;;11.40;;
19733;SDS011;10018;51.230;7.860;2023-03-01T02:38:28;24.87;;;12.33;;
19733;SDS011;10018;51.230;7.860;2023-03-01T02:40:55;25.23;;;11.83;;
19733;SDS011;10018;51.230;7.860;2023-03-01T02:43:22;26.13;;;12.13;;
19733;SDS011;10018;51.230;7.860;2023-03-01T02:45:52;23.87;;;12.17;;
19733;SDS011;10018;51.230;7.860;2023-03-01T02:48:22;24.10;;;11.93;;
19733;SDS011;10018;51.230;7.860;2023-03-01T02:56:27;22.63;;;11.30;;
19733;SDS011;10018;51.230;7.860;2023-03-01T02:58:54;22.80;;;11.40;;
19733;SDS011;10018;51.230;7.860;2023-03-01T03:01:25;25.57;;;12.10;;
19733;SDS011;10018;51.230;7.860;2023-03-01T03:04:05;22.63;;;11.73;;
19733;SDS011;10018;51.230;7.860;2023-03-01T03:06:36;24.50;;;11.73;;
19733;SDS011;10018;51.230;7.860;2023-03-01T03:09:04;24.33;;;12.43;;
19733;SDS011;10018;51.230;7.860;2023-03-01T03:11:29;22.63;;;11.50;;
19733;SDS011;10018;51.230;7.860;2023-03-01T03:13:57;21.40;;;11.23;;
19733;SDS011;10018;51.230;7.860;2023-03-01T03:16:23;26.87;;;11.70;;
19733;SDS011;10018;51.230;7.860;2023-03-01T03:18:49;23.50;;;12.17;;
19733;SDS011;10018;51.230;7.860;2023-03-01T03:21:15;22.00;;;11.60;;
19733;SDS011;10018;51.230;7.860;2023-03-01T03:23:41;26.63;;;12.30;;
19733;SDS011;10018;51.230;7.860;2023-03-01T03:26:07;22.10;;;11.60;;
19733;SDS011;10018;51.230;7.860;2023-03-01T03:28:34;20.53;;;11.27;;
19733;SDS011;10018;51.230;7.860;2023-03-01T03:31:00;25.73;;;12.00;;
19733;SDS011;10018;51.230;7.860;2023-03-01T03:33:29;25.20;;;12.03;;
19733;SDS011;10018;51.230;7.860;2023-03-01T03:35:56;22.80;;;11.53;;
19733;SDS011;10018;51.230;7.860;2023-03-01T03:38:21;25.17;;;12.30;;
19733;SDS011;10018;51.230;7.860;2023-03-01T03:40:48;25.97;;;11.33;;
19733;SDS011;10018;51.230;7.860;2023-03-01T03:43:16;24.80;;;12.30;;
19733;SDS011;10018;51.230;7.860;2023-03-01T03:45:44;22.07;;;11.27;;
19733;SDS011;10018;51.230;7.860;2023-03-01T03:48:11;24.87;;;12.13;;
19733;SDS011;10018;51.230;7.860;2023-03-01T03:50:37;27.17;;;11.80;;
19733;SDS011;10018;51.230;7.860;2023-03-01T03:53:09;24.33;;;11.43;;
19733;SDS011;10018;51.230;7.860;2023-03-01T03:55:36;23.13;;;11.50;;
19733;SDS011;10018;51.230;7.860;2023-03-01T03:58:04;29.70;;;11.97;;
19733;SDS011;10018;51.230;7.860;2023-03-01T04:00:35;22.60;;;11.53;;
19733;SDS011;10018;51.230;7.860;2023-03-01T04:03:05;25.63;;;12.20;;
19733;SDS011;10018;51.230;7.860;2023-03-01T04:05:31;24.50;;;11.90;;
19733;SDS011;10018;51.230;7.860;2023-03-01T04:07:57;25.20;;;11.57;;
19733;SDS011;10018;51.230;7.860;2023-03-01T04:10:33;23.23;;;11.80;;
19733;SDS011;10018;51.230;7.860;2023-03-01T04:13:02;22.90;;;11.47;;
19733;SDS011;10018;51.230;7.860;2023-03-01T04:15:28;23.70;;;12.30;;
19733;SDS011;10018;51.230;7.860;2023-03-01T04:17:57;22.40;;;11.10;;
19733;SDS011;10018;51.230;7.860;2023-03-01T04:20:24;23.80;;;11.50;;
19733;SDS011;10018;51.230;7.860;2023-03-01T04:22:57;22.13;;;11.20;;
19733;SDS011;10018;51.230;7.860;2023-03-01T04:25:35;23.33;;;11.13;;
19733;SDS011;10018;51.230;7.860;2023-03-01T04:28:04;25.13;;;11.87;;
19733;SDS011;10018;51.230;7.860;2023-03-01T04:30:30;22.40;;;11.47;;
19733;SDS011;10018;51.230;7.860;2023-03-01T04:33:00;25.53;;;11.37;;
19733;SDS011;10018;51.230;7.860;2023-03-01T04:35:33;23.47;;;11.47;;
19733;SDS011;10018;51.230;7.860;2023-03-01T04:38:00;21.97;;;11.17;;
19733;SDS011;10018;51.230;7.860;2023-03-01T04:40:25;24.27;;;10.63;;
19733;SDS011;10018;51.230;7.860;2023-03-01T04:42:51;23.37;;;11.30;;
19733;SDS011;10018;51.230;7.860;2023-03-01T04:45:17;24.40;;;11.23;;
19733;SDS011;10018;51.230;7.860;2023-03-01T04:47:43;24.20;;;11.53;;
19733;SDS011;10018;51.230;7.860;2023-03-01T04:50:12;22.60;;;10.97;;
19733;SDS011;10018;51.230;7.860;2023-03-01T04:52:42;21.50;;;11.20;;
19733;SDS011;10018;51.230;7.860;2023-03-01T04:55:08;21.27;;;11.60;;
19733;SDS011;10018;51.230;7.860;2023-03-01T04:57:34;22.57;;;11.63;;
19733;SDS011;10018;51.230;7.860;2023-03-01T05:00:00;25.47;;;11.53;;
19733;SDS011;10018;51.230;7.860;2023-03-01T05:02:44;21.17;;;10.77;;
19733;SDS011;10018;51.230;7.860;2023-03-01T05:05:14;23.87;;;11.83;;
19733;SDS011;10018;51.230;7.860;2023-03-01T05:07:40;20.93;;;10.83;;
19733;SDS011;10018;51.230;7.860;2023-03-01T05:10:06;25.13;;;12.20;;
19733;SDS011;10018;51.230;7.860;2023-03-01T05:12:32;21.33;;;11.50;;
19733;SDS011;10018;51.230;7.860;2023-03-01T05:14:57;23.90;;;11.50;;
19733;SDS011;10018;51.230;7.860;2023-03-01T05:17:23;25.93;;;11.60;;
19733;SDS011;10018;51.230;7.860;2023-03-01T05:19:49;26.17;;;12.43;;
19733;SDS011;10018;51.230;7.860;2023-03-01T05:22:15;23.53;;;11.53;;
19733;SDS011;10018;51.230;7.860;2023-03-01T05:24:41;27.00;;;13.30;;
19733;SDS011;10018;51.230;7.860;2023-03-01T05:27:06;26.07;;;12.20;;
19733;SDS011;10018;51.230;7.860;2023-03-01T05:29:32;21.77;;;11.03;;
19733;SDS011;10018;51.230;7.860;2023-03-01T05:32:00;25.50;;;12.53;;
19733;SDS011;10018;51.230;7.860;2023-03-01T05:34:34;22.20;;;11.43;;
19733;SDS011;10018;51.230;7.860;2023-03-01T05:37:01;22.87;;;11.50;;
19733;SDS011;10018;51.230;7.860;2023-03-01T05:39:27;25.57;;;11.93;;
19733;SDS011;10018;51.230;7.860;2023-03-01T05:41:55;25.70;;;11.73;;
19733;SDS011;10018;51.230;7.860;2023-03-01T05:44:21;22.90;;;11.40;;
19733;SDS011;10018;51.230;7.860;2023-03-01T05:46:47;23.57;;;11.73;;
19733;SDS011;10018;51.230;7.860;2023-03-01T05:49:13;27.07;;;12.37;;
19733;SDS011;10018;51.230;7.860;2023-03-01T05:51:41;26.63;;;12.80;;
19733;SDS011;10018;51.230;7.860;2023-03-01T05:54:09;26.63;;;13.63;;
19733;SDS011;10018;51.230;7.860;2023-03-01T05:56:35;25.07;;;12.47;;
19733;SDS011;10018;51.230;7.860;2023-03-01T05:59:02;26.30;;;12.30;;
19733;SDS011;10018;51.230;7.860;2023-03-01T06:01:28;25.50;;;11.93;;
19733;SDS011;10018;51.230;7.860;2023-03-01T06:03:54;24.57;;;11.97;;
19733;SDS011;10018;51.230;7.860;2023-03-01T06:06:20;27.07;;;12.47;;
19733;SDS011;10018;51.230;7.860;2023-03-01T06:08:46;23.53;;;11.97;;
19733;SDS011;10018;51.230;7.860;2023-03-01T06:11:12;30.03;;;14.27;;
19733;SDS011;10018;51.230;7.860;2023-03-01T06:13:37;30.80;;;15.17;;
19733;SDS011;10018;51.230;7.860;2023-03-01T06:16:06;27.40;;;12.97;;
19733;SDS011;10018;51.230;7.860;2023-03-01T06:18:32;27.07;;;14.10;;
19733;SDS011;10018;51.230;7.860;2023-03-01T06:20:58;26.63;;;13.13;;
19733;SDS011;10018;51.230;7.860;2023-03-01T06:23:24;31.57;;;13.43;;
19733;SDS011;10018;51.230;7.860;2023-03-01T06:25:50;70.10;;;29.67;;
19733;SDS011;10018;51.230;7.860;2023-03-01T06:28:16;61.80;;;27.00;;
19733;SDS011;10018;51.230;7.860;2023-03-01T06:30:41;43.10;;;19.33;;
19733;SDS011;10018;51.230;7.860;2023-03-01T06:33:07;27.40;;;13.27;;
19733;SDS011;10018;51.230;7.860;2023-03-01T06:35:33;27.40;;;13.27;;
19733;SDS011;10018;51.230;7.860;2023-03-01T06:38:00;41.67;;;20.67;;
19733;SDS011;10018;51.230;7.860;2023-03-01T06:40:26;31.67;;;14.80;;
19733;SDS011;10018;51.230;7.860;2023-03-01T06:42:53;31.97;;;14.53;;
19733;SDS011;10018;51.230;7.860;2023-03-01T06:45:19;27.80;;;13.77;;
19733;SDS011;10018;51.230;7.860;2023-03-01T06:47:45;27.97;;;13.97;;
19733;SDS011;10018;51.230;7.860;2023-03-01T06:50:12;34.00;;;14.77;;
19733;SDS011;10018;51.230;7.860;2023-03-01T06:52:38;26.67;;;13.17;;
19733;SDS011;10018;51.230;7.860;2023-03-01T06:55:04;29.23;;;14.30;;
19733;SDS011;10018;51.230;7.860;2023-03-01T06:57:31;33.57;;;16.03;;
19733;SDS011;10018;51.230;7.860;2023-03-01T06:59:56;30.53;;;15.23;;
19733;SDS011;10018;51.230;7.860;2023-03-01T07:02:22;33.60;;;17.67;;
19733;SDS011;10018;51.230;7.860;2023-03-01T07:04:52;38.33;;;17.33;;
19733;SDS011;10018;51.230;7.860;2023-03-01T07:07:18;37.80;;;17.33;;
19733;SDS011;10018;51.230;7.860;2023-03-01T07:09:45;36.30;;;18.00;;
19733;SDS011;10018;51.230;7.860;2023-03-01T07:12:11;39.60;;;20.23;;
19733;SDS011;10018;51.230;7.860;2023-03-01T07:14:36;36.17;;;19.13;;
19733;SDS011;10018;51.230;7.860;2023-03-01T07:17:04;32.43;;;15.27;;
19733;SDS011;10018;51.230;7.860;2023-03-01T07:19:30;30.70;;;16.10;;
19733;SDS011;10018;51.230;7.860;2023-03-01T07:21:56;35.00;;;15.37;;
19733;SDS011;10018;51.230;7.860;2023-03-01T07:24:21;33.07;;;16.13;;
19733;SDS011;10018;51.230;7.860;2023-03-01T07:26:48;32.80;;;15.97;;
19733;SDS011;10018;51.230;7.860;2023-03-01T07:29:15;31.43;;;15.60;;
19733;SDS011;10018;51.230;7.860;2023-03-01T07:31:41;37.03;;;17.60;;
19733;SDS011;10018;51.230;7.860;2023-03-01T07:34:06;38.90;;;18.77;;
19733;SDS011;10018;51.230;7.860;2023-03-01T07:36:32;36.87;;;17.63;;
19733;SDS011;10018;51.230;7.860;2023-03-01T07:38:57;38.57;;;19.37;;
19733;SDS011;10018;51.230;7.860;2023-03-01T07:41:23;43.07;;;20.50;;
19733;SDS011;10018;51.230;7.860;2023-03-01T07:43:49;37.30;;;18.57;;
19733;SDS011;10018;51.230;7.860;2023-03-01T07:46:15;43.57;;;18.83;;
19733;SDS011;10018;51.230;7.860;2023-03-01T07:48:40;48.73;;;20.93;;
19733;SDS011;10018;51.230;7.860;2023-03-01T07:51:06;137.23;;;46.53;;
19733;SDS011;10018;51.230;7.860;2023-03-01T07:53:32;78.97;;;28.60;;
19733;SDS011;10018;51.230;7.860;2023-03-01T07:56:10;46.23;;;20.97;;
19733;SDS011;10018;51.230;7.860;2023-03-01T07:58:37;41.60;;;19.77;;
19733;SDS011;10018;51.230;7.860;2023-03-01T08:01:05;34.13;;;17.77;;
19733;SDS011;10018;51.230;7.860;2023-03-01T08:03:32;36.17;;;16.57;;
19733;SDS011;10018;51.230;7.860;2023-03-01T08:05:59;35.73;;;17.60;;
19733;SDS011;10018;51.230;7.860;2023-03-01T08:08:26;34.60;;;18.17;;
19733;SDS011;10018;51.230;7.860;2023-03-01T08:10:51;34.10;;;16.83;;
19733;SDS011;10018;51.230;7.860;2023-03-01T08:13:17;32.93;;;17.30;;
19733;SDS011;10018;51.230;7.860;2023-03-01T08:15:48;32.07;;;17.17;;
19733;SDS011;10018;51.230;7.860;2023-03-01T08:18:14;35.27;;;18.70;;
19733;SDS011;10018;51.230;7.860;2023-03-01T08:20:40;40.00;;;19.63;;
19733;SDS011;10018;51.230;7.860;2023-03-01T08:23:06;43.20;;;19.63;;
19733;SDS011;10018;51.230;7.860;2023-03-01T08:25:31;37.47;;;18.80;;
19733;SDS011;10018;51.230;7.860;2023-03-01T08:27:58;38.97;;;18.47;;
19733;SDS011;10018;51.230;7.860;2023-03-01T08:30:23;38.67;;;19.53;;
19733;SDS011;10018;51.230;7.860;2023-03-01T08:32:49;39.60;;;19.33;;
19733;SDS011;10018;51.230;7.860;2023-03-01T08:35:15;42.27;;;22.00;;
19733;SDS011;10018;51.230;7.860;2023-03-01T08:37:41;43.63;;;24.10;;
19733;SDS011;10018;51.230;7.860;2023-03-01T08:40:07;42.83;;;22.47;;
19733;SDS011;10018;51.230;7.860;2023-03-01T08:42:35;35.47;;;19.50;;
19733;SDS011;10018;51.230;7.860;2023-03-01T08:45:03;40.93;;;20.27;;
19733;SDS011;10018;51.230;7.860;2023-03-01T08:47:29;38.00;;;20.13;;
19733;SDS011;10018;51.230;7.860;2023-03-01T08:49:58;40.40;;;22.27;;
19733;SDS011;10018;51.230;7.860;2023-03-01T08:52:27;44.57;;;21.77;;
19733;SDS011;10018;51.230;7.860;2023-03-01T08:54:55;41.47;;;20.77;;
19733;SDS011;10018;51.230;7.860;2023-03-01T08:57:21;107.70;;;43.50;;
19733;SDS011;10018;51.230;7.860;2023-03-01T08:59:46;96.47;;;38.77;;
19733;SDS011;10018;51.230;7.860;2023-03-01T09:02:13;64.87;;;30.53;;
19733;SDS011;10018;51.230;7.860;2023-03-01T09:04:42;38.37;;;19.37;;
19733;SDS011;10018;51.230;7.860;2023-03-01T09:07:09;44.10;;;23.07;;
19733;SDS011;10018;51.230;7.860;2023-03-01T09:09:35;37.70;;;19.60;;
19733;SDS011;10018;51.230;7.860;2023-03-01T09:12:01;43.47;;;21.47;;
19733;SDS011;10018;51.230;7.860;2023-03-01T09:14:27;44.53;;;21.10;;
19733;SDS011;10018;51.230;7.860;2023-03-01T09:16:53;29.93;;;15.87;;
19733;SDS011;10018;51.230;7.860;2023-03-01T09:19:18;33.93;;;18.47;;
19733;SDS011;10018;51.230;7.860;2023-03-01T09:21:44;33.93;;;18.30;;
19733;SDS011;10018;51.230;7.860;2023-03-01T09:24:27;30.60;;;16.13;;
19733;SDS011;10018;51.230;7.860;2023-03-01T09:26:53;27.50;;;14.53;;
19733;SDS011;10018;51.230;7.860;2023-03-01T09:29:20;27.37;;;15.20;;
19733;SDS011;10018;51.230;7.860;2023-03-01T09:31:46;31.70;;;17.47;;
19733;SDS011;10018;51.230;7.860;2023-03-01T09:34:11;36.47;;;19.23;;
19733;SDS011;10018;51.230;7.860;2023-03-01T09:36:40;30.93;;;16.07;;
19733;SDS011;10018;51.230;7.860;2023-03-01T09:39:06;27.07;;;15.07;;
19733;SDS011;10018;51.230;7.860;2023-03-01T09:41:42;28.10;;;14.10;;
19733;SDS011;10018;51.230;7.860;2023-03-01T09:44:15;27.03;;;14.53;;
19733;SDS011;10018;51.230;7.860;2023-03-01T09:46:56;28.13;;;16.27;;
19733;SDS011;10018;51.230;7.860;2023-03-01T09:49:28;29.17;;;14.73;;
19733;SDS011;10018;51.230;7.860;2023-03-01T09:54:55;26.00;;;13.77;;
19733;SDS011;10018;51.230;7.860;2023-03-01T10:02:45;30.37;;;15.60;;
19733;SDS011;10018;51.230;7.860;2023-03-01T10:05:36;22.23;;;12.77;;
19733;SDS011;10018;51.230;7.860;2023-03-01T10:08:48;21.00;;;12.90;;
19733;SDS011;10018;51.230;7.860;2023-03-01T10:11:28;20.77;;;11.67;;
19733;SDS011;10018;51.230;7.860;2023-03-01T10:14:01;21.93;;;12.43;;
19733;SDS011;10018;51.230;7.860;2023-03-01T10:16:48;24.87;;;12.37;;
19733;SDS011;10018;51.230;7.860;2023-03-01T10:19:18;21.57;;;12.53;;
19733;SDS011;10018;51.230;7.860;2023-03-01T10:21:49;20.67;;;11.17;;
19733;SDS011;10018;51.230;7.860;2023-03-01T10:24:17;21.50;;;11.53;;
19733;SDS011;10018;51.230;7.860;2023-03-01T10:26:56;45.97;;;21.60;;
19733;SDS011;10018;51.230;7.860;2023-03-01T10:29:25;50.00;;;20.27;;
19733;SDS011;10018;51.230;7.860;2023-03-01T10:32:02;19.10;;;10.43;;
19733;SDS011;10018;51.230;7.860;2023-03-01T10:34:32;55.87;;;26.67;;
19733;SDS011;10018;51.230;7.860;2023-03-01T10:37:13;21.20;;;11.67;;
19733;SDS011;10018;51.230;7.860;2023-03-01T10:40:03;23.03;;;12.43;;
19733;SDS011;10018;51.230;7.860;2023-03-01T10:42:34;34.50;;;17.60;;
19733;SDS011;10018;51.230;7.860;2023-03-01T10:50:40;17.17;;;9.47;;
19733;SDS011;10018;51.230;7.860;2023-03-01T10:53:26;17.33;;;9.40;;
19733;SDS011;10018;51.230;7.860;2023-03-01T10:58:32;25.73;;;14.50;;
19733;SDS011;10018;51.230;7.860;2023-03-01T11:01:01;22.43;;;11.73;;
19733;SDS011;10018;51.230;7.860;2023-03-01T11:03:32;31.73;;;18.07;;
19733;SDS011;10018;51.230;7.860;2023-03-01T11:06:05;19.63;;;11.73;;
19733;SDS011;10018;51.230;7.860;2023-03-01T11:08:47;16.30;;;9.53;;
19733;SDS011;10018;51.230;7.860;2023-03-01T11:11:33;16.43;;;9.17;;
19733;SDS011;10018;51.230;7.860;2023-03-01T11:14:20;17.93;;;9.50;;
19733;SDS011;10018;51.230;7.860;2023-03-01T11:17:01;17.47;;;8.07;;
19733;SDS011;10018;51.230;7.860;2023-03-01T11:19:29;18.10;;;10.50;;
19733;SDS011;10018;51.230;7.860;2023-03-01T11:22:11;16.57;;;9.53;;
19733;SDS011;10018;51.230;7.860;2023-03-01T11:24:52;19.40;;;10.17;;
19733;SDS011;10018;51.230;7.860;2023-03-01T11:36:23;20.87;;;9.30;;
19733;SDS011;10018;51.230;7.860;2023-03-01T11:39:10;17.83;;;9.77;;
19733;SDS011;10018;51.230;7.860;2023-03-01T11:44:54;15.97;;;8.87;;
19733;SDS011;10018;51.230;7.860;2023-03-01T11:52:57;16.00;;;9.37;;
19733;SDS011;10018;51.230;7.860;2023-03-01T11:55:52;16.90;;;8.90;;
19733;SDS011;10018;51.230;7.860;2023-03-01T11:58:32;16.33;;;8.70;;
19733;SDS011;10018;51.230;7.860;2023-03-01T12:01:28;14.50;;;8.90;;
19733;SDS011;10018;51.230;7.860;2023-03-01T12:07:07;16.70;;;8.03;;
19733;SDS011;10018;51.230;7.860;2023-03-01T12:12:35;15.63;;;8.60;;
19733;SDS011;10018;51.230;7.860;2023-03-01T12:20:32;14.10;;;7.90;;
19733;SDS011;10018;51.230;7.860;2023-03-01T12:25:34;13.93;;;8.07;;
19733;SDS011;10018;51.230;7.860;2023-03-01T12:28:14;13.07;;;7.40;;
19733;SDS011;10018;51.230;7.860;2023-03-01T12:31:00;13.13;;;7.10;;
19733;SDS011;10018;51.230;7.860;2023-03-01T12:33:54;13.43;;;7.07;;
19733;SDS011;10018;51.230;7.860;2023-03-01T12:36:52;13.63;;;7.50;;
19733;SDS011;10018;51.230;7.860;2023-03-01T12:42:20;14.73;;;6.90;;
19733;SDS011;10018;51.230;7.860;2023-03-01T12:50:21;13.53;;;7.07;;
19733;SDS011;10018;51.230;7.860;2023-03-01T12:52:57;12.37;;;6.67;;
19733;SDS011;10018;51.230;7.860;2023-03-01T12:58:17;14.37;;;7.30;;
19733;SDS011;10018;51.230;7.860;2023-03-01T13:01:14;13.07;;;7.13;;
19733;SDS011;10018;51.230;7.860;2023-03-01T13:09:54;13.60;;;7.80;;
19733;SDS011;10018;51.230;7.860;2023-03-01T13:17:47;13.70;;;8.57;;
19733;SDS011;10018;51.230;7.860;2023-03-01T13:20:15;12.77;;;7.60;;
19733;SDS011;10018;51.230;7.860;2023-03-01T13:22:42;14.50;;;7.83;;
19733;SDS011;10018;51.230;7.860;2023-03-01T13:25:18;15.87;;;7.80;;
19733;SDS011;10018;51.230;7.860;2023-03-01T13:27:45;14.80;;;8.07;;
19733;SDS011;10018;51.230;7.860;2023-03-01T13:35:53;13.83;;;6.80;;
19733;SDS011;10018;51.230;7.860;2023-03-01T13:38:44;14.00;;;7.80;;
19733;SDS011;10018;51.230;7.860;2023-03-01T13:47:03;13.07;;;7.73;;
19733;SDS011;10018;51.230;7.860;2023-03-01T13:50:15;15.73;;;7.60;;
19733;SDS011;10018;51.230;7.860;2023-03-01T13:54:59;12.33;;;6.87;;
19733;SDS011;10018;51.230;7.860;2023-03-01T13:57:28;10.27;;;6.43;;
19733;SDS011;10018;51.230;7.860;2023-03-01T13:59:58;12.67;;;6.63;;
19733;SDS011;10018;51.230;7.860;2023-03-01T14:02:23;10.70;;;6.83;;
19733;SDS011;10018;51.230;7.860;2023-03-01T14:04:56;15.60;;;7.30;;
19733;SDS011;10018;51.230;7.860;2023-03-01T14:07:25;14.97;;;7.10;;
19733;SDS011;10018;51.230;7.860;2023-03-01T14:09:55;11.17;;;7.40;;
19733;SDS011;10018;51.230;7.860;2023-03-01T14:12:40;11.60;;;7.53;;
19733;SDS011;10018;51.230;7.860;2023-03-01T14:15:27;12.50;;;6.53;;
19733;SDS011;10018;51.230;7.860;2023-03-01T14:18:09;11.67;;;7.60;;
19733;SDS011;10018;51.230;7.860;2023-03-01T14:20:52;10.43;;;7.30;;
19733;SDS011;10018;51.230;7.860;2023-03-01T14:23:18;14.03;;;7.90;;
19733;SDS011;10018;51.230;7.860;2023-03-01T14:25:50;10.13;;;7.30;;
19733;SDS011;10018;51.230;7.860;2023-03-01T14:28:21;10.17;;;6.93;;
19733;SDS011;10018;51.230;7.860;2023-03-01T14:30:50;10.63;;;6.83;;
19733;SDS011;10018;51.230;7.860;2023-03-01T14:36:02;10.93;;;7.57;;
19733;SDS011;10018;51.230;7.860;2023-03-01T14:41:16;10.53;;;6.63;;
19733;SDS011;10018;51.230;7.860;2023-03-01T14:43:45;13.00;;;6.70;;
19733;SDS011;10018;51.230;7.860;2023-03-01T14:46:35;12.07;;;6.87;;
19733;SDS011;10018;51.230;7.860;2023-03-01T14:49:04;12.83;;;7.40;;
19733;SDS011;10018;51.230;7.860;2023-03-01T14:51:30;11.27;;;7.70;;
19733;SDS011;10018;51.230;7.860;2023-03-01T14:54:02;7.90;;;5.60;;
19733;SDS011;10018;51.230;7.860;2023-03-01T14:56:37;9.73;;;5.60;;
19733;SDS011;10018;51.230;7.860;2023-03-01T14:59:10;10.30;;;5.80;;
19733;SDS011;10018;51.230;7.860;2023-03-01T15:01:36;9.30;;;6.13;;
19733;SDS011;10018;51.230;7.860;2023-03-01T15:04:02;12.47;;;5.83;;
19733;SDS011;10018;51.230;7.860;2023-03-01T15:06:27;9.03;;;5.80;;
19733;SDS011;10018;51.230;7.860;2023-03-01T15:08:54;7.17;;;5.47;;
19733;SDS011;10018;51.230;7.860;2023-03-01T15:11:32;9.63;;;6.47;;
19733;SDS011;10018;51.230;7.860;2023-03-01T15:13:58;11.90;;;6.30;;
19733;SDS011;10018;51.230;7.860;2023-03-01T15:16:31;10.37;;;6.40;;
19733;SDS011;10018;51.230;7.860;2023-03-01T15:18:59;9.33;;;5.73;;
19733;SDS011;10018;51.230;7.860;2023-03-01T15:21:37;10.10;;;6.20;;
19733;SDS011;10018;51.230;7.860;2023-03-01T15:26:40;11.83;;;6.33;;
19733;SDS011;10018;51.230;7.860;2023-03-01T15:29:18;10.10;;;6.43;;
19733;SDS011;10018;51.230;7.860;2023-03-01T15:34:50;10.03;;;7.20;;
19733;SDS011;10018;51.230;7.860;2023-03-01T15:40:21;12.17;;;7.30;;
19733;SDS011;10018;51.230;7.860;2023-03-01T15:42:56;9.60;;;6.20;;
19733;SDS011;10018;51.230;7.860;2023-03-01T15:45:24;10.93;;;6.40;;
19733;SDS011;10018;51.230;7.860;2023-03-01T15:47:58;11.03;;;6.53;;
19733;SDS011;10018;51.230;7.860;2023-03-01T15:50:34;9.10;;;6.27;;
19733;SDS011;10018;51.230;7.860;2023-03-01T15:53:03;9.90;;;6.30;;
19733;SDS011;10018;51.230;7.860;2023-03-01T15:55:36;11.53;;;6.20;;
19733;SDS011;10018;51.230;7.860;2023-03-01T15:58:04;10.13;;;6.03;;
19733;SDS011;10018;51.230;7.860;2023-03-01T16:00:34;10.33;;;6.00;;
19733;SDS011;10018;51.230;7.860;2023-03-01T16:03:00;9.13;;;6.13;;
19733;SDS011;10018;51.230;7.860;2023-03-01T16:05:29;10.70;;;6.10;;
19733;SDS011;10018;51.230;7.860;2023-03-01T16:07:59;11.03;;;6.57;;
19733;SDS011;10018;51.230;7.860;2023-03-01T16:10:25;10.10;;;6.10;;
19733;SDS011;10018;51.230;7.860;2023-03-01T16:12:51;8.97;;;5.53;;
19733;SDS011;10018;51.230;7.860;2023-03-01T16:17:53;10.50;;;6.03;;
19733;SDS011;10018;51.230;7.860;2023-03-01T16:20:19;11.50;;;7.00;;
19733;SDS011;10018;51.230;7.860;2023-03-01T16:22:45;10.33;;;5.87;;
19733;SDS011;10018;51.230;7.860;2023-03-01T16:25:11;10.97;;;5.77;;
19733;SDS011;10018;51.230;7.860;2023-03-01T16:27:45;14.07;;;7.23;;
19733;SDS011;10018;51.230;7.860;2023-03-01T16:30:12;30.33;;;16.23;;
19733;SDS011;10018;51.230;7.860;2023-03-01T16:32:40;22.60;;;13.90;;
19733;SDS011;10018;51.230;7.860;2023-03-01T16:35:07;20.27;;;10.67;;
19733;SDS011;10018;51.230;7.860;2023-03-01T16:37:34;16.80;;;8.90;;
19733;SDS011;10018;51.230;7.860;2023-03-01T16:40:00;21.07;;;11.83;;
19733;SDS011;10018;51.230;7.860;2023-03-01T16:42:33;12.90;;;6.33;;